Historyczne dane pomiarowe

Dodano dane terminowe – wersja testowa.

Dane z okresu 1951-2019

Wersja bazy: 1.34 [2019-03-16, lista zmian], aktualizacja planowana na 2019-04-15

Dane meteo z obszaru Polski uzyskane na podstawie danych udostępnionych przez Instytut Meteorologii i Gospodarki Wodnej – Państwowy Instytut Badawczy.

 

Wybierz Datę:    

       

TemperaturaWilgotnośćWiatrCiśnienieOpadyŚniegCzas trwania zjawisk
 Stacja t tx tn tng RH VA  wxwx mslp ppp RRR   cm mm wxwxwxwxwxwxwx
1983-08-14 12.8 17.4 8.8 5.0 75.0- 3.3 4.0---- 0.4------------
1983-08-13 13.8 21.6 10.5 8.4 87.3- 7.0 2.3---- 2.9------------
1983-08-12 20.1 26.4 14.4 11.8 72.5- 3.0 1.3---- 6.8------------
1983-08-11 19.2 25.4 15.4 13.9 82.0- 7.7 0.7---- 6.8------------
1983-08-10 19.7 26.7 10.8 8.8 73.0- 2.0 1.7---- 0.0------------
1983-08-09 20.1 25.5 13.3 10.5 67.8- 1.3 1.7---- 0.0------------
1983-08-08 20.7 28.9 13.9 11.0 77.3- 6.3 1.3---- 0.0------------
1983-08-07 20.9 27.4 13.6 11.0 74.3- 3.0 3.0---- 0.0------------
1983-08-06 17.8 23.5 12.3 12.0 79.8- 3.3 0.7---- 0.0------------
1983-08-05 14.6 16.5 12.9 12.8 92.8- 8.0 1.3---- 0.6------------
1983-08-04 19.8 26.8 15.8 13.5 76.5- 6.3 1.7---- 5.4------------
1983-08-03 20.1 27.0 10.9 7.4 67.5- 0.7 3.3---- 0.0------------
1983-08-02 19.0 25.5 10.3 6.6 66.5- 0.0 3.0---- 0.0------------
1983-08-01 18.1 25.1 8.7 5.6 71.0- 0.0 1.3---- 0.0------------
1983-07-31 16.9 22.4 11.4 8.1 76.3- 2.0 1.3---- 0.0------------
1983-07-30 15.0 20.0 10.9 8.3 86.3- 8.0 3.3---- 0.5------------
1983-07-29 17.5 20.6 15.6 14.0 82.3- 5.3 1.7---- 0.0------------
1983-07-28 20.6 26.4 15.6 13.5 79.0- 7.3 1.0---- 0.0------------
1983-07-27 22.0 28.3 14.4 11.2 80.5- 3.0 0.7---- 0.2------------
1983-07-26 20.2 27.6 14.6 13.1 84.3- 7.0 2.0---- 0.0------------
1983-07-25 12.1 17.1 7.1 4.6 95.3- 5.7 2.3---- 3.9------------
1983-07-24 14.5 19.7 7.9 6.8 82.0- 4.0 0.3---- 0.7------------
1983-07-23 11.9 16.7 9.3 7.3 91.5- 7.0 0.7---- 1.5------------
1983-07-22 12.2 16.9 8.8 7.4 80.3- 5.3 3.3---- 10.9------------
1983-07-21 11.7 16.5 7.1 5.4 78.8- 5.0 4.0---- 4.5------------
1983-07-20 14.1 20.4 10.3 10.0 80.5- 3.7 2.7---- 6.7------------
1983-07-19 19.9 24.9 12.9 9.1 72.0- 5.3 1.7---- 0.4------------
1983-07-18 18.7 25.8 8.2 6.1 67.8- 1.3 0.7---- 0.0------------
1983-07-17 19.0 22.6 14.9 12.0 68.5- 2.7 1.7---- 0.0------------
1983-07-16 20.3 26.9 12.4 9.4 64.8- 3.3 3.0---- 0.0------------
1983-07-15 19.3 24.2 13.4 12.0 73.0- 1.7 1.0---- 0.0------------
1983-07-14 19.7 24.5 13.9 12.1 83.8- 7.7 2.3---- 2.5------------
1983-07-13 18.4 24.9 12.8 11.3 86.0- 6.3 0.7---- 0.7------------
1983-07-12 18.1 21.5 14.9 13.8 89.5- 7.0 0.7---- 11.7------------
1983-07-11 18.8 26.4 13.8 11.9 84.8- 7.0 1.7---- 5.7------------
1983-07-10 18.7 25.9 12.9 10.2 81.8- 6.7 2.7---- 7.5------------
1983-07-09 19.5 26.4 13.9 11.5 75.3- 3.7 1.3---- 2.7------------
1983-07-08 17.4 24.0 9.3 6.5 76.8- 3.7 2.3---- 0.2------------
1983-07-07 17.2 23.0 8.8 6.1 67.5- 0.0 2.3---- 0.0------------
1983-07-06 17.1 22.5 10.2 8.1 74.8- 1.7 1.7---- 0.0------------
1983-07-05 17.9 23.0 13.2 10.3 68.8- 0.3 2.0---- 0.0------------
1983-07-04 18.8 25.0 8.9 7.4 67.5- 2.7 0.7---- 0.0------------
1983-07-03 17.5 22.9 10.6 8.4 66.8- 0.0 1.7---- 0.0------------
1983-07-02 19.1 25.0 12.4 9.9 84.0- 7.7 1.3---- 0.0------------
1983-07-01 18.6 24.7 11.3 8.4 78.8- 6.3 2.3---- 0.0------------
1983-06-30 16.0 22.8 5.5 2.6 68.8- 4.0 0.7---- 0.0------------
1983-06-29 15.1 19.5 8.8 6.4 68.3- 1.0 2.3---- 0.0------------
1983-06-28 16.5 19.9 14.2 12.4 91.8- 7.0 1.3---- 9.2------------
1983-06-27 16.8 25.4 8.7 5.3 85.0- 5.3 0.7---- 14.8------------
1983-06-26 17.8 21.7 11.9 9.3 67.0- 2.7 2.3---- 0.0------------
1983-06-25 18.8 27.2 8.8 5.1 61.5- 5.0 3.3---- 0.0------------
1983-06-24 17.2 24.7 5.6 2.4 56.8- 2.0 3.0---- 0.0------------
1983-06-23 12.9 19.7 1.6 -0.5 60.0- 0.0 2.0---- 0.0------------
1983-06-22 10.9 15.6 3.1 -0.3 59.8- 1.3 2.0---- 0.0------------
1983-06-21 15.7 22.5 10.8 7.2 70.0- 1.7 3.7---- 0.0------------
1983-06-20 19.1 23.5 14.9 13.9 70.5- 3.3 2.3---- 0.0------------
1983-06-19 18.3 22.5 15.0 14.1 87.3- 7.7 2.7---- 1.6------------
1983-06-18 14.6 18.5 11.3 9.1 89.5- 8.0 4.0---- 1.1------------
1983-06-17 14.4 19.3 9.9 9.5 77.0- 8.0 1.7---- 0.0------------
1983-06-16 13.3 17.2 10.8 10.7 92.8- 8.0 3.0---- 0.5------------
257.5 ms

 

Źródłem pochodzenia danych jest Instytut Meteorologii i Gospodarki Wodnej – Państwowy Instytut Badawczy. Dane Instytutu Meteorologii i Gospodarki Wodnej – Państwowego Instytutu Badawczego zostały przetworzone.

Dane źródłowe można odnaleźć na stronie https://dane.imgw.pl